sensor_id;sensor_type;location;lat;lon;timestamp;temperature;humidity
37052;DHT22;22964;52.272;13.356;2022-11-21T00:00:23;3.60;74.10
37052;DHT22;22964;52.272;13.356;2022-11-21T00:02:49;3.60;74.00
37052;DHT22;22964;52.272;13.356;2022-11-21T00:05:15;3.60;74.00
37052;DHT22;22964;52.272;13.356;2022-11-21T00:07:41;3.70;74.00
37052;DHT22;22964;52.272;13.356;2022-11-21T00:10:07;3.70;74.00
37052;DHT22;22964;52.272;13.356;2022-11-21T00:12:32;3.70;73.90
37052;DHT22;22964;52.272;13.356;2022-11-21T00:14:58;3.70;73.90
37052;DHT22;22964;52.272;13.356;2022-11-21T00:17:24;3.70;73.90
37052;DHT22;22964;52.272;13.356;2022-11-21T00:19:49;3.70;73.90
37052;DHT22;22964;52.272;13.356;2022-11-21T00:22:15;3.80;73.80
37052;DHT22;22964;52.272;13.356;2022-11-21T00:24:41;3.80;73.70
37052;DHT22;22964;52.272;13.356;2022-11-21T00:27:06;3.80;73.70
37052;DHT22;22964;52.272;13.356;2022-11-21T00:29:32;3.80;73.70
37052;DHT22;22964;52.272;13.356;2022-11-21T00:31:58;3.80;73.70
37052;DHT22;22964;52.272;13.356;2022-11-21T00:34:23;3.80;73.60
37052;DHT22;22964;52.272;13.356;2022-11-21T00:36:49;3.80;73.60
37052;DHT22;22964;52.272;13.356;2022-11-21T00:39:15;3.80;73.70
37052;DHT22;22964;52.272;13.356;2022-11-21T00:41:40;3.80;73.70
37052;DHT22;22964;52.272;13.356;2022-11-21T00:44:06;3.80;73.70
37052;DHT22;22964;52.272;13.356;2022-11-21T00:46:32;3.80;73.80
37052;DHT22;22964;52.272;13.356;2022-11-21T00:48:57;3.90;73.90
37052;DHT22;22964;52.272;13.356;2022-11-21T00:51:23;3.90;73.90
37052;DHT22;22964;52.272;13.356;2022-11-21T00:53:49;3.90;73.90
37052;DHT22;22964;52.272;13.356;2022-11-21T00:56:14;3.90;74.00
37052;DHT22;22964;52.272;13.356;2022-11-21T00:58:41;3.90;74.00
37052;DHT22;22964;52.272;13.356;2022-11-21T01:01:10;3.90;73.90
37052;DHT22;22964;52.272;13.356;2022-11-21T01:03:36;3.90;73.90
37052;DHT22;22964;52.272;13.356;2022-11-21T01:06:12;3.90;73.80
37052;DHT22;22964;52.272;13.356;2022-11-21T01:08:41;3.90;73.80
37052;DHT22;22964;52.272;13.356;2022-11-21T01:11:13;3.90;73.80
37052;DHT22;22964;52.272;13.356;2022-11-21T01:13:39;4.00;74.60
37052;DHT22;22964;52.272;13.356;2022-11-21T01:16:11;4.00;73.80
37052;DHT22;22964;52.272;13.356;2022-11-21T01:18:37;4.00;73.70
37052;DHT22;22964;52.272;13.356;2022-11-21T01:21:15;4.00;73.70
37052;DHT22;22964;52.272;13.356;2022-11-21T01:23:41;4.00;73.70
37052;DHT22;22964;52.272;13.356;2022-11-21T01:26:10;4.00;73.60
37052;DHT22;22964;52.272;13.356;2022-11-21T01:28:36;4.00;73.50
37052;DHT22;22964;52.272;13.356;2022-11-21T01:31:04;4.00;73.50
37052;DHT22;22964;52.272;13.356;2022-11-21T01:33:30;4.10;73.60
37052;DHT22;22964;52.272;13.356;2022-11-21T01:35:56;4.00;73.60
37052;DHT22;22964;52.272;13.356;2022-11-21T01:38:22;4.10;73.60
37052;DHT22;22964;52.272;13.356;2022-11-21T01:40:47;4.10;73.40
37052;DHT22;22964;52.272;13.356;2022-11-21T01:43:14;4.10;73.40
37052;DHT22;22964;52.272;13.356;2022-11-21T01:53:45;4.10;74.00
37052;DHT22;22964;52.272;13.356;2022-11-21T01:56:12;4.10;73.10
37052;DHT22;22964;52.272;13.356;2022-11-21T01:58:39;4.10;73.00
37052;DHT22;22964;52.272;13.356;2022-11-21T02:01:06;4.00;72.90
37052;DHT22;22964;52.272;13.356;2022-11-21T02:03:34;4.00;72.80
37052;DHT22;22964;52.272;13.356;2022-11-21T02:06:00;4.00;72.90
37052;DHT22;22964;52.272;13.356;2022-11-21T02:08:27;3.90;72.90
37052;DHT22;22964;52.272;13.356;2022-11-21T02:11:15;3.90;73.10
37052;DHT22;22964;52.272;13.356;2022-11-21T02:13:42;3.80;73.20
37052;DHT22;22964;52.272;13.356;2022-11-21T02:16:08;3.80;73.40
37052;DHT22;22964;52.272;13.356;2022-11-21T02:18:33;3.80;73.60
37052;DHT22;22964;52.272;13.356;2022-11-21T02:21:10;3.70;73.80
37052;DHT22;22964;52.272;13.356;2022-11-21T02:23:39;3.70;74.80
37052;DHT22;22964;52.272;13.356;2022-11-21T02:26:07;3.70;74.00
37052;DHT22;22964;52.272;13.356;2022-11-21T02:28:32;3.60;74.10
37052;DHT22;22964;52.272;13.356;2022-11-21T02:30:58;3.60;74.30
37052;DHT22;22964;52.272;13.356;2022-11-21T02:33:24;3.60;74.40
37052;DHT22;22964;52.272;13.356;2022-11-21T02:35:57;3.60;74.50
37052;DHT22;22964;52.272;13.356;2022-11-21T02:38:30;3.60;74.70
37052;DHT22;22964;52.272;13.356;2022-11-21T02:41:10;3.60;74.80
37052;DHT22;22964;52.272;13.356;2022-11-21T02:43:50;3.60;74.80
37052;DHT22;22964;52.272;13.356;2022-11-21T02:46:17;3.60;74.80
37052;DHT22;22964;52.272;13.356;2022-11-21T02:48:43;3.60;74.80
37052;DHT22;22964;52.272;13.356;2022-11-21T02:51:08;3.60;74.80
37052;DHT22;22964;52.272;13.356;2022-11-21T02:53:34;3.60;74.80
37052;DHT22;22964;52.272;13.356;2022-11-21T02:56:00;3.60;74.80
37052;DHT22;22964;52.272;13.356;2022-11-21T02:58:25;3.60;74.90
37052;DHT22;22964;52.272;13.356;2022-11-21T03:00:51;3.60;75.00
37052;DHT22;22964;52.272;13.356;2022-11-21T03:03:17;3.70;75.10
37052;DHT22;22964;52.272;13.356;2022-11-21T03:05:43;3.70;75.00
37052;DHT22;22964;52.272;13.356;2022-11-21T03:08:08;3.70;75.10
37052;DHT22;22964;52.272;13.356;2022-11-21T03:10:35;3.70;74.90
37052;DHT22;22964;52.272;13.356;2022-11-21T03:13:00;3.70;74.80
37052;DHT22;22964;52.272;13.356;2022-11-21T03:15:28;3.70;74.70
37052;DHT22;22964;52.272;13.356;2022-11-21T03:17:55;3.80;74.80
37052;DHT22;22964;52.272;13.356;2022-11-21T03:20:21;3.70;74.70
37052;DHT22;22964;52.272;13.356;2022-11-21T03:22:46;3.70;75.50
37052;DHT22;22964;52.272;13.356;2022-11-21T03:25:12;3.70;74.70
37052;DHT22;22964;52.272;13.356;2022-11-21T03:27:38;3.70;74.80
37052;DHT22;22964;52.272;13.356;2022-11-21T03:30:04;3.70;74.80
37052;DHT22;22964;52.272;13.356;2022-11-21T03:32:30;3.70;74.90
37052;DHT22;22964;52.272;13.356;2022-11-21T03:34:55;3.70;75.00
37052;DHT22;22964;52.272;13.356;2022-11-21T03:37:21;3.70;75.10
37052;DHT22;22964;52.272;13.356;2022-11-21T03:39:47;3.60;75.00
37052;DHT22;22964;52.272;13.356;2022-11-21T03:42:12;3.60;75.20
37052;DHT22;22964;52.272;13.356;2022-11-21T03:44:38;3.60;75.20
37052;DHT22;22964;52.272;13.356;2022-11-21T03:47:04;3.60;75.40
37052;DHT22;22964;52.272;13.356;2022-11-21T03:49:29;3.60;75.40
37052;DHT22;22964;52.272;13.356;2022-11-21T03:51:55;3.50;75.40
37052;DHT22;22964;52.272;13.356;2022-11-21T03:54:21;3.50;75.50
37052;DHT22;22964;52.272;13.356;2022-11-21T03:56:46;3.50;75.40
37052;DHT22;22964;52.272;13.356;2022-11-21T03:59:12;3.50;75.50
37052;DHT22;22964;52.272;13.356;2022-11-21T04:01:38;3.50;75.50
37052;DHT22;22964;52.272;13.356;2022-11-21T04:04:04;3.60;75.70
37052;DHT22;22964;52.272;13.356;2022-11-21T04:06:30;3.60;75.60
37052;DHT22;22964;52.272;13.356;2022-11-21T04:08:56;3.60;75.60
37052;DHT22;22964;52.272;13.356;2022-11-21T04:11:22;3.60;75.60
37052;DHT22;22964;52.272;13.356;2022-11-21T04:13:50;3.70;75.60
37052;DHT22;22964;52.272;13.356;2022-11-21T04:16:16;3.70;75.60
37052;DHT22;22964;52.272;13.356;2022-11-21T04:18:41;3.70;76.40
37052;DHT22;22964;52.272;13.356;2022-11-21T04:21:07;3.70;75.50
37052;DHT22;22964;52.272;13.356;2022-11-21T04:23:33;3.70;76.30
37052;DHT22;22964;52.272;13.356;2022-11-21T04:25:59;3.70;75.50
37052;DHT22;22964;52.272;13.356;2022-11-21T04:28:25;3.80;76.00
37052;DHT22;22964;52.272;13.356;2022-11-21T04:30:51;3.80;75.50
37052;DHT22;22964;52.272;13.356;2022-11-21T04:33:18;3.80;76.40
37052;DHT22;22964;52.272;13.356;2022-11-21T04:35:44;3.80;75.40
37052;DHT22;22964;52.272;13.356;2022-11-21T04:38:11;3.80;75.40
37052;DHT22;22964;52.272;13.356;2022-11-21T04:40:38;3.80;75.30
37052;DHT22;22964;52.272;13.356;2022-11-21T04:43:04;3.80;75.20
37052;DHT22;22964;52.272;13.356;2022-11-21T04:45:30;3.80;75.10
37052;DHT22;22964;52.272;13.356;2022-11-21T04:47:56;3.80;75.20
37052;DHT22;22964;52.272;13.356;2022-11-21T04:50:22;3.80;75.20
37052;DHT22;22964;52.272;13.356;2022-11-21T04:52:52;3.80;75.30
37052;DHT22;22964;52.272;13.356;2022-11-21T04:55:20;3.80;75.70
37052;DHT22;22964;52.272;13.356;2022-11-21T04:57:46;3.80;75.30
37052;DHT22;22964;52.272;13.356;2022-11-21T05:00:13;3.80;75.40
37052;DHT22;22964;52.272;13.356;2022-11-21T05:02:39;3.80;75.30
37052;DHT22;22964;52.272;13.356;2022-11-21T05:05:06;3.90;75.30
37052;DHT22;22964;52.272;13.356;2022-11-21T05:07:31;3.90;75.40
37052;DHT22;22964;52.272;13.356;2022-11-21T05:09:57;3.90;75.40
37052;DHT22;22964;52.272;13.356;2022-11-21T05:12:23;3.90;75.40
37052;DHT22;22964;52.272;13.356;2022-11-21T05:15:07;3.90;75.40
37052;DHT22;22964;52.272;13.356;2022-11-21T05:17:33;3.90;75.30
37052;DHT22;22964;52.272;13.356;2022-11-21T05:19:59;3.90;75.30
37052;DHT22;22964;52.272;13.356;2022-11-21T05:22:25;4.00;75.40
37052;DHT22;22964;52.272;13.356;2022-11-21T05:24:50;4.00;75.40
37052;DHT22;22964;52.272;13.356;2022-11-21T05:27:16;4.00;75.50
37052;DHT22;22964;52.272;13.356;2022-11-21T05:29:42;4.00;75.70
37052;DHT22;22964;52.272;13.356;2022-11-21T05:32:07;4.10;76.80
37052;DHT22;22964;52.272;13.356;2022-11-21T05:34:33;4.10;76.20
37052;DHT22;22964;52.272;13.356;2022-11-21T05:36:59;4.20;76.30
37052;DHT22;22964;52.272;13.356;2022-11-21T05:39:25;4.20;76.40
37052;DHT22;22964;52.272;13.356;2022-11-21T05:41:51;4.30;76.40
37052;DHT22;22964;52.272;13.356;2022-11-21T05:44:17;4.30;76.20
37052;DHT22;22964;52.272;13.356;2022-11-21T05:46:43;4.40;76.20
37052;DHT22;22964;52.272;13.356;2022-11-21T05:49:09;4.40;76.00
37052;DHT22;22964;52.272;13.356;2022-11-21T05:51:35;4.40;75.70
37052;DHT22;22964;52.272;13.356;2022-11-21T05:54:00;4.40;75.30
37052;DHT22;22964;52.272;13.356;2022-11-21T05:56:26;4.50;75.10
37052;DHT22;22964;52.272;13.356;2022-11-21T05:58:56;4.50;75.00
37052;DHT22;22964;52.272;13.356;2022-11-21T06:01:23;4.50;74.90
37052;DHT22;22964;52.272;13.356;2022-11-21T06:04:07;4.50;74.70
37052;DHT22;22964;52.272;13.356;2022-11-21T06:06:34;4.50;74.60
37052;DHT22;22964;52.272;13.356;2022-11-21T06:09:00;4.50;74.50
37052;DHT22;22964;52.272;13.356;2022-11-21T06:11:26;4.50;74.40
37052;DHT22;22964;52.272;13.356;2022-11-21T06:13:52;4.50;74.20
37052;DHT22;22964;52.272;13.356;2022-11-21T06:16:18;4.50;74.10
37052;DHT22;22964;52.272;13.356;2022-11-21T06:18:46;4.50;74.00
37052;DHT22;22964;52.272;13.356;2022-11-21T06:21:23;4.50;73.90
37052;DHT22;22964;52.272;13.356;2022-11-21T06:23:51;4.50;73.70
37052;DHT22;22964;52.272;13.356;2022-11-21T06:26:19;4.50;73.60
37052;DHT22;22964;52.272;13.356;2022-11-21T06:28:45;4.50;73.50
37052;DHT22;22964;52.272;13.356;2022-11-21T06:31:13;4.50;73.50
37052;DHT22;22964;52.272;13.356;2022-11-21T06:33:40;4.40;73.40
37052;DHT22;22964;52.272;13.356;2022-11-21T06:36:15;4.40;73.30
37052;DHT22;22964;52.272;13.356;2022-11-21T06:38:42;4.40;73.20
37052;DHT22;22964;52.272;13.356;2022-11-21T06:41:19;4.40;73.10
37052;DHT22;22964;52.272;13.356;2022-11-21T06:43:45;4.40;73.00
37052;DHT22;22964;52.272;13.356;2022-11-21T06:46:12;4.40;73.00
37052;DHT22;22964;52.272;13.356;2022-11-21T06:48:39;4.40;73.00
37052;DHT22;22964;52.272;13.356;2022-11-21T06:53:43;4.30;72.90
37052;DHT22;22964;52.272;13.356;2022-11-21T06:56:09;4.30;72.90
37052;DHT22;22964;52.272;13.356;2022-11-21T06:58:35;4.30;72.90
37052;DHT22;22964;52.272;13.356;2022-11-21T07:01:09;4.30;72.90
37052;DHT22;22964;52.272;13.356;2022-11-21T07:03:35;4.30;72.90
37052;DHT22;22964;52.272;13.356;2022-11-21T07:06:02;4.30;73.00
37052;DHT22;22964;52.272;13.356;2022-11-21T07:08:28;4.30;73.20
37052;DHT22;22964;52.272;13.356;2022-11-21T07:10:54;4.30;73.40
37052;DHT22;22964;52.272;13.356;2022-11-21T07:13:20;4.30;73.50
37052;DHT22;22964;52.272;13.356;2022-11-21T07:15:48;4.30;73.70
37052;DHT22;22964;52.272;13.356;2022-11-21T07:18:14;4.30;73.70
37052;DHT22;22964;52.272;13.356;2022-11-21T07:20:40;4.40;73.80
37052;DHT22;22964;52.272;13.356;2022-11-21T07:23:07;4.40;73.70
37052;DHT22;22964;52.272;13.356;2022-11-21T07:25:33;4.40;73.70
37052;DHT22;22964;52.272;13.356;2022-11-21T07:27:59;4.40;73.70
37052;DHT22;22964;52.272;13.356;2022-11-21T07:30:25;4.40;73.70
37052;DHT22;22964;52.272;13.356;2022-11-21T07:32:59;4.50;73.70
37052;DHT22;22964;52.272;13.356;2022-11-21T07:35:26;4.40;73.60
37052;DHT22;22964;52.272;13.356;2022-11-21T07:37:52;4.50;73.70
37052;DHT22;22964;52.272;13.356;2022-11-21T07:40:18;4.50;73.70
37052;DHT22;22964;52.272;13.356;2022-11-21T07:42:44;4.50;73.70
37052;DHT22;22964;52.272;13.356;2022-11-21T07:45:10;4.60;73.70
37052;DHT22;22964;52.272;13.356;2022-11-21T07:47:36;4.60;73.70
37052;DHT22;22964;52.272;13.356;2022-11-21T07:50:03;4.60;73.70
37052;DHT22;22964;52.272;13.356;2022-11-21T07:52:29;4.60;73.70
37052;DHT22;22964;52.272;13.356;2022-11-21T07:54:55;4.60;73.70
37052;DHT22;22964;52.272;13.356;2022-11-21T07:57:22;4.60;73.70
37052;DHT22;22964;52.272;13.356;2022-11-21T07:59:47;4.60;73.70
37052;DHT22;22964;52.272;13.356;2022-11-21T08:02:24;4.60;73.80
37052;DHT22;22964;52.272;13.356;2022-11-21T08:04:50;4.70;73.90
37052;DHT22;22964;52.272;13.356;2022-11-21T08:07:17;4.70;73.90
37052;DHT22;22964;52.272;13.356;2022-11-21T08:09:43;4.70;73.90
37052;DHT22;22964;52.272;13.356;2022-11-21T08:12:10;4.70;73.80
37052;DHT22;22964;52.272;13.356;2022-11-21T08:14:36;4.80;74.70
37052;DHT22;22964;52.272;13.356;2022-11-21T08:17:02;4.80;73.80
37052;DHT22;22964;52.272;13.356;2022-11-21T08:19:28;4.80;73.90
37052;DHT22;22964;52.272;13.356;2022-11-21T08:21:54;4.80;73.90
37052;DHT22;22964;52.272;13.356;2022-11-21T08:24:20;4.80;74.00
37052;DHT22;22964;52.272;13.356;2022-11-21T08:26:46;4.90;74.10
37052;DHT22;22964;52.272;13.356;2022-11-21T08:29:12;4.80;74.00
37052;DHT22;22964;52.272;13.356;2022-11-21T08:31:40;4.80;74.00
37052;DHT22;22964;52.272;13.356;2022-11-21T08:34:06;4.90;74.00
37052;DHT22;22964;52.272;13.356;2022-11-21T08:36:32;4.90;74.00
37052;DHT22;22964;52.272;13.356;2022-11-21T08:38:58;4.90;74.10
37052;DHT22;22964;52.272;13.356;2022-11-21T08:41:23;4.90;74.20
37052;DHT22;22964;52.272;13.356;2022-11-21T08:44:08;4.90;74.20
37052;DHT22;22964;52.272;13.356;2022-11-21T08:46:34;4.90;74.10
37052;DHT22;22964;52.272;13.356;2022-11-21T08:49:05;4.90;74.00
37052;DHT22;22964;52.272;13.356;2022-11-21T08:51:31;4.90;73.90
37052;DHT22;22964;52.272;13.356;2022-11-21T08:53:56;4.90;73.90
37052;DHT22;22964;52.272;13.356;2022-11-21T08:56:23;4.90;74.00
37052;DHT22;22964;52.272;13.356;2022-11-21T08:58:49;4.90;74.20
37052;DHT22;22964;52.272;13.356;2022-11-21T09:01:14;4.90;74.20
37052;DHT22;22964;52.272;13.356;2022-11-21T09:03:40;4.90;74.30
37052;DHT22;22964;52.272;13.356;2022-11-21T09:06:06;4.90;74.30
37052;DHT22;22964;52.272;13.356;2022-11-21T09:08:32;4.90;74.20
37052;DHT22;22964;52.272;13.356;2022-11-21T09:10:57;4.90;74.20
37052;DHT22;22964;52.272;13.356;2022-11-21T09:13:23;4.90;74.30
37052;DHT22;22964;52.272;13.356;2022-11-21T09:15:49;4.90;74.40
37052;DHT22;22964;52.272;13.356;2022-11-21T09:18:33;4.90;74.40
37052;DHT22;22964;52.272;13.356;2022-11-21T09:20:59;4.90;74.30
37052;DHT22;22964;52.272;13.356;2022-11-21T09:23:25;4.90;74.30
37052;DHT22;22964;52.272;13.356;2022-11-21T09:25:51;4.90;74.30
37052;DHT22;22964;52.272;13.356;2022-11-21T09:28:17;4.90;74.30
37052;DHT22;22964;52.272;13.356;2022-11-21T09:30:42;4.90;74.20
37052;DHT22;22964;52.272;13.356;2022-11-21T09:33:13;4.90;74.10
37052;DHT22;22964;52.272;13.356;2022-11-21T09:35:41;4.90;74.00
37052;DHT22;22964;52.272;13.356;2022-11-21T09:38:07;4.90;74.00
37052;DHT22;22964;52.272;13.356;2022-11-21T09:40:34;4.90;73.90
37052;DHT22;22964;52.272;13.356;2022-11-21T09:43:12;4.90;73.90
37052;DHT22;22964;52.272;13.356;2022-11-21T09:45:43;4.80;73.80
37052;DHT22;22964;52.272;13.356;2022-11-21T09:48:19;4.80;73.80
37052;DHT22;22964;52.272;13.356;2022-11-21T09:50:50;4.80;73.90
37052;DHT22;22964;52.272;13.356;2022-11-21T09:53:22;4.80;74.00
37052;DHT22;22964;52.272;13.356;2022-11-21T09:58:36;4.80;73.90
37052;DHT22;22964;52.272;13.356;2022-11-21T10:01:04;4.80;74.00
37052;DHT22;22964;52.272;13.356;2022-11-21T10:03:38;4.70;74.00
37052;DHT22;22964;52.272;13.356;2022-11-21T10:06:34;4.70;74.10
37052;DHT22;22964;52.272;13.356;2022-11-21T10:25:20;4.80;74.60
37052;DHT22;22964;52.272;13.356;2022-11-21T10:28:01;4.90;74.70
37052;DHT22;22964;52.272;13.356;2022-11-21T10:30:28;4.80;74.60
37052;DHT22;22964;52.272;13.356;2022-11-21T10:33:03;4.80;74.50
37052;DHT22;22964;52.272;13.356;2022-11-21T10:36:00;4.90;74.50
37052;DHT22;22964;52.272;13.356;2022-11-21T10:38:28;4.80;74.30
37052;DHT22;22964;52.272;13.356;2022-11-21T10:41:16;4.90;75.10
37052;DHT22;22964;52.272;13.356;2022-11-21T10:44:11;4.90;74.40
37052;DHT22;22964;52.272;13.356;2022-11-21T10:47:00;4.90;74.40
37052;DHT22;22964;52.272;13.356;2022-11-21T10:49:29;4.90;74.50
37052;DHT22;22964;52.272;13.356;2022-11-21T10:52:14;4.90;74.30
37052;DHT22;22964;52.272;13.356;2022-11-21T10:57:42;4.90;74.30
37052;DHT22;22964;52.272;13.356;2022-11-21T11:02:38;4.90;74.10
37052;DHT22;22964;52.272;13.356;2022-11-21T11:05:21;4.90;74.10
37052;DHT22;22964;52.272;13.356;2022-11-21T11:13:18;4.90;74.40
37052;DHT22;22964;52.272;13.356;2022-11-21T11:16:20;4.90;74.40
37052;DHT22;22964;52.272;13.356;2022-11-21T11:18:57;4.90;74.40
37052;DHT22;22964;52.272;13.356;2022-11-21T11:21:28;4.90;74.30
37052;DHT22;22964;52.272;13.356;2022-11-21T11:29:14;4.90;74.00
37052;DHT22;22964;52.272;13.356;2022-11-21T11:31:54;4.90;73.90
37052;DHT22;22964;52.272;13.356;2022-11-21T11:34:20;4.90;73.90
37052;DHT22;22964;52.272;13.356;2022-11-21T11:37:20;4.90;73.90
37052;DHT22;22964;52.272;13.356;2022-11-21T11:43:25;4.90;73.90
37052;DHT22;22964;52.272;13.356;2022-11-21T11:49:02;4.90;74.10
37052;DHT22;22964;52.272;13.356;2022-11-21T11:51:50;4.90;74.10
37052;DHT22;22964;52.272;13.356;2022-11-21T11:54:20;4.80;74.00
37052;DHT22;22964;52.272;13.356;2022-11-21T11:56:47;4.80;74.80
37052;DHT22;22964;52.272;13.356;2022-11-21T12:02:24;4.80;73.80
37052;DHT22;22964;52.272;13.356;2022-11-21T12:05:11;4.80;73.60
37052;DHT22;22964;52.272;13.356;2022-11-21T12:07:48;4.80;73.70
37052;DHT22;22964;52.272;13.356;2022-11-21T12:10:39;4.80;73.70
37052;DHT22;22964;52.272;13.356;2022-11-21T12:13:28;4.80;73.70
37052;DHT22;22964;52.272;13.356;2022-11-21T12:15:58;4.80;74.60
37052;DHT22;22964;52.272;13.356;2022-11-21T12:18:38;4.80;74.00
37052;DHT22;22964;52.272;13.356;2022-11-21T12:21:16;4.80;74.00
37052;DHT22;22964;52.272;13.356;2022-11-21T12:24:00;4.90;74.00
37052;DHT22;22964;52.272;13.356;2022-11-21T12:26:38;4.90;73.80
37052;DHT22;22964;52.272;13.356;2022-11-21T12:40:38;5.00;73.90
37052;DHT22;22964;52.272;13.356;2022-11-21T12:45:50;5.00;73.90
37052;DHT22;22964;52.272;13.356;2022-11-21T13:04:59;5.00;73.20
37052;DHT22;22964;52.272;13.356;2022-11-21T13:07:28;5.10;73.20
37052;DHT22;22964;52.272;13.356;2022-11-21T13:09:57;5.10;73.20
37052;DHT22;22964;52.272;13.356;2022-11-21T13:12:39;5.10;73.10
37052;DHT22;22964;52.272;13.356;2022-11-21T13:15:23;5.00;72.90
37052;DHT22;22964;52.272;13.356;2022-11-21T13:18:03;5.10;72.90
37052;DHT22;22964;52.272;13.356;2022-11-21T13:20:39;5.10;72.90
37052;DHT22;22964;52.272;13.356;2022-11-21T13:23:38;5.10;73.00
37052;DHT22;22964;52.272;13.356;2022-11-21T13:31:33;5.20;72.70
37052;DHT22;22964;52.272;13.356;2022-11-21T13:34:03;5.10;72.40
37052;DHT22;22964;52.272;13.356;2022-11-21T13:50:04;5.20;72.30
37052;DHT22;22964;52.272;13.356;2022-11-21T13:58:11;5.30;72.30
37052;DHT22;22964;52.272;13.356;2022-11-21T14:00:50;5.30;72.30
37052;DHT22;22964;52.272;13.356;2022-11-21T14:09:21;5.30;71.90
37052;DHT22;22964;52.272;13.356;2022-11-21T14:11:56;5.30;71.80
37052;DHT22;22964;52.272;13.356;2022-11-21T14:23:16;5.40;72.50
37052;DHT22;22964;52.272;13.356;2022-11-21T14:25:48;5.40;72.20
37052;DHT22;22964;52.272;13.356;2022-11-21T14:28:41;5.50;71.90
37052;DHT22;22964;52.272;13.356;2022-11-21T14:31:09;5.50;71.70
37052;DHT22;22964;52.272;13.356;2022-11-21T14:33:44;5.50;71.70
37052;DHT22;22964;52.272;13.356;2022-11-21T14:36:14;5.50;71.50
37052;DHT22;22964;52.272;13.356;2022-11-21T14:38:52;5.40;71.30
37052;DHT22;22964;52.272;13.356;2022-11-21T14:46:34;5.30;70.70
37052;DHT22;22964;52.272;13.356;2022-11-21T14:52:02;5.30;70.70
37052;DHT22;22964;52.272;13.356;2022-11-21T14:54:49;5.20;70.80
37052;DHT22;22964;52.272;13.356;2022-11-21T14:57:37;5.10;70.90
37052;DHT22;22964;52.272;13.356;2022-11-21T15:00:06;5.10;70.80
37052;DHT22;22964;52.272;13.356;2022-11-21T15:02:32;5.10;70.80
37052;DHT22;22964;52.272;13.356;2022-11-21T15:05:01;5.10;70.70
37052;DHT22;22964;52.272;13.356;2022-11-21T15:07:34;5.00;70.50
37052;DHT22;22964;52.272;13.356;2022-11-21T15:10:02;5.00;70.50
37052;DHT22;22964;52.272;13.356;2022-11-21T15:15:27;4.90;70.20
37052;DHT22;22964;52.272;13.356;2022-11-21T15:17:59;4.80;70.10
37052;DHT22;22964;52.272;13.356;2022-11-21T15:20:27;4.80;70.90
37052;DHT22;22964;52.272;13.356;2022-11-21T15:22:55;4.80;70.40
37052;DHT22;22964;52.272;13.356;2022-11-21T15:25:25;4.70;70.50
37052;DHT22;22964;52.272;13.356;2022-11-21T15:30:29;4.70;70.80
37052;DHT22;22964;52.272;13.356;2022-11-21T15:33:12;4.60;70.80
37052;DHT22;22964;52.272;13.356;2022-11-21T15:35:55;4.60;70.60
37052;DHT22;22964;52.272;13.356;2022-11-21T15:43:42;4.50;70.70
37052;DHT22;22964;52.272;13.356;2022-11-21T15:46:28;4.50;70.90
37052;DHT22;22964;52.272;13.356;2022-11-21T15:49:03;4.50;71.20
37052;DHT22;22964;52.272;13.356;2022-11-21T15:53:57;4.50;71.30
37052;DHT22;22964;52.272;13.356;2022-11-21T15:56:23;4.50;71.20
37052;DHT22;22964;52.272;13.356;2022-11-21T15:58:49;4.50;70.80
37052;DHT22;22964;52.272;13.356;2022-11-21T16:01:20;4.50;70.60
37052;DHT22;22964;52.272;13.356;2022-11-21T16:03:53;4.40;70.30
37052;DHT22;22964;52.272;13.356;2022-11-21T16:06:20;4.40;70.40
37052;DHT22;22964;52.272;13.356;2022-11-21T16:08:46;4.40;70.50
37052;DHT22;22964;52.272;13.356;2022-11-21T16:11:27;4.30;70.70
37052;DHT22;22964;52.272;13.356;2022-11-21T16:13:56;4.30;70.90
37052;DHT22;22964;52.272;13.356;2022-11-21T16:16:25;4.30;71.10
37052;DHT22;22964;52.272;13.356;2022-11-21T16:18:51;4.30;71.20
37052;DHT22;22964;52.272;13.356;2022-11-21T16:21:17;4.20;71.30
37052;DHT22;22964;52.272;13.356;2022-11-21T16:23:43;4.20;71.50
37052;DHT22;22964;52.272;13.356;2022-11-21T16:26:09;4.20;71.60
37052;DHT22;22964;52.272;13.356;2022-11-21T16:28:36;4.10;71.80
37052;DHT22;22964;52.272;13.356;2022-11-21T16:31:03;4.10;72.10
37052;DHT22;22964;52.272;13.356;2022-11-21T16:33:29;4.10;72.40
37052;DHT22;22964;52.272;13.356;2022-11-21T16:35:55;4.10;72.90
37052;DHT22;22964;52.272;13.356;2022-11-21T16:38:26;4.10;72.80
37052;DHT22;22964;52.272;13.356;2022-11-21T16:41:01;4.00;72.90
37052;DHT22;22964;52.272;13.356;2022-11-21T16:43:30;4.00;73.20
37052;DHT22;22964;52.272;13.356;2022-11-21T16:46:06;4.00;73.30
37052;DHT22;22964;52.272;13.356;2022-11-21T16:48:32;4.00;73.50
37052;DHT22;22964;52.272;13.356;2022-11-21T16:51:10;3.90;73.60
37052;DHT22;22964;52.272;13.356;2022-11-21T16:53:37;3.90;73.90
37052;DHT22;22964;52.272;13.356;2022-11-21T16:56:03;4.00;74.00
37052;DHT22;22964;52.272;13.356;2022-11-21T16:58:29;4.00;74.10
37052;DHT22;22964;52.272;13.356;2022-11-21T17:00:55;4.00;74.10
37052;DHT22;22964;52.272;13.356;2022-11-21T17:03:20;3.90;74.10
37052;DHT22;22964;52.272;13.356;2022-11-21T17:05:59;4.00;74.20
37052;DHT22;22964;52.272;13.356;2022-11-21T17:08:27;4.00;74.40
37052;DHT22;22964;52.272;13.356;2022-11-21T17:10:53;3.90;74.40
37052;DHT22;22964;52.272;13.356;2022-11-21T17:13:19;3.90;75.10
37052;DHT22;22964;52.272;13.356;2022-11-21T17:15:45;3.90;74.60
37052;DHT22;22964;52.272;13.356;2022-11-21T17:18:10;3.90;74.60
37052;DHT22;22964;52.272;13.356;2022-11-21T17:20:36;3.90;74.70
37052;DHT22;22964;52.272;13.356;2022-11-21T17:23:02;3.90;74.80
37052;DHT22;22964;52.272;13.356;2022-11-21T17:25:28;4.00;74.80
37052;DHT22;22964;52.272;13.356;2022-11-21T17:27:54;4.00;74.80
37052;DHT22;22964;52.272;13.356;2022-11-21T17:30:20;4.00;74.80
37052;DHT22;22964;52.272;13.356;2022-11-21T17:32:47;4.00;74.80
37052;DHT22;22964;52.272;13.356;2022-11-21T17:35:12;4.00;74.80
37052;DHT22;22964;52.272;13.356;2022-11-21T17:37:38;4.00;74.90
37052;DHT22;22964;52.272;13.356;2022-11-21T17:40:04;4.00;74.80
37052;DHT22;22964;52.272;13.356;2022-11-21T17:42:31;3.90;74.90
37052;DHT22;22964;52.272;13.356;2022-11-21T17:44:57;3.90;75.00
37052;DHT22;22964;52.272;13.356;2022-11-21T17:47:22;3.90;75.00
37052;DHT22;22964;52.272;13.356;2022-11-21T17:49:48;3.90;75.00
37052;DHT22;22964;52.272;13.356;2022-11-21T17:52:14;3.90;75.00
37052;DHT22;22964;52.272;13.356;2022-11-21T17:54:40;3.90;75.00
37052;DHT22;22964;52.272;13.356;2022-11-21T17:57:05;3.90;74.90
37052;DHT22;22964;52.272;13.356;2022-11-21T17:59:31;3.90;74.80
37052;DHT22;22964;52.272;13.356;2022-11-21T18:01:59;3.90;74.80
37052;DHT22;22964;52.272;13.356;2022-11-21T18:04:26;4.00;74.90
37052;DHT22;22964;52.272;13.356;2022-11-21T18:06:52;4.00;74.90
37052;DHT22;22964;52.272;13.356;2022-11-21T18:09:17;4.00;74.90